Time;durP1;ratioP1;P1;durP2;ratioP2;P2;SDS_P1;SDS_P2;PMS_P1;PMS_P2;Temp;Humidity;BMP_temperature;BMP_pressure;BME280_temperature;BME280_humidity;BME280_pressure;Samples;Min_cycle;Max_cycle;Signal;HPM_P1;HPM_P2
2022/07/03 00:01:39;;;;;;;0.22;0.22;;;20.40;62.50;;;;;;5048907;28;20021;-63
2022/07/03 00:04:04;;;;;;;0.55;0.50;;;20.40;62.50;;;;;;5048426;28;20028;-64
2022/07/03 00:06:32;;;;;;;0.38;0.38;;;20.30;62.60;;;;;;5047760;28;20020;-64
2022/07/03 00:08:59;;;;;;;0.45;0.45;;;20.30;62.60;;;;;;5049346;28;20459;-64
2022/07/03 00:11:26;;;;;;;0.40;0.40;;;20.30;62.60;;;;;;5031214;28;20020;-64
2022/07/03 00:13:51;;;;;;;0.52;0.30;;;20.30;62.70;;;;;;5048930;28;20796;-64
2022/07/03 00:16:17;;;;;;;7.25;0.63;;;20.30;62.90;;;;;;5047865;28;20127;-64
2022/07/03 00:18:43;;;;;;;0.28;0.28;;;20.20;62.90;;;;;;5031252;28;20037;-64
2022/07/03 00:21:11;;;;;;;0.47;0.47;;;20.20;63.00;;;;;;5048126;28;20040;-68
2022/07/03 00:23:50;;;;;;;0.90;0.40;;;20.10;63.00;;;;;;5048851;28;20129;-68
2022/07/03 00:26:19;;;;;;;0.32;0.32;;;20.10;63.10;;;;;;5032630;28;20025;-68
2022/07/03 00:28:49;;;;;;;0.40;0.40;;;20.00;63.20;;;;;;5047981;28;20574;-64
2022/07/03 00:31:15;;;;;;;0.55;0.35;;;20.00;63.30;;;;;;5016763;28;20547;-64
2022/07/03 00:33:42;;;;;;;0.63;0.40;;;19.90;63.40;;;;;;5024790;28;20124;-64
2022/07/03 00:36:08;;;;;;;0.40;0.40;;;19.90;63.50;;;;;;5047458;28;20132;-64
2022/07/03 00:38:34;;;;;;;1.33;0.63;;;19.80;63.90;;;;;;5048752;28;20025;-64
2022/07/03 00:41:04;;;;;;;4.55;0.40;;;19.80;63.70;;;;;;5030776;28;20110;-65
2022/07/03 00:43:30;;;;;;;0.45;0.45;;;19.70;63.70;;;;;;5030326;28;20029;-64
2022/07/03 00:46:08;;;;;;;0.40;0.40;;;19.70;63.80;;;;;;5048120;28;20090;-64
2022/07/03 00:48:38;;;;;;;0.43;0.40;;;19.70;63.90;;;;;;5030291;28;20475;-65
2022/07/03 00:51:06;;;;;;;0.55;0.30;;;19.60;63.90;;;;;;5047397;28;20108;-64
2022/07/03 00:53:33;;;;;;;0.43;0.40;;;19.60;63.90;;;;;;5030136;28;20033;-64
2022/07/03 00:56:02;;;;;;;0.63;0.40;;;19.50;64.00;;;;;;5028679;28;20364;-64
2022/07/03 00:58:28;;;;;;;0.57;0.57;;;19.50;64.10;;;;;;5043701;28;20100;-64
2022/07/03 01:00:55;;;;;;;7.22;0.50;;;19.40;64.10;;;;;;5040621;28;20076;-64
2022/07/03 01:03:23;;;;;;;0.70;0.50;;;19.40;64.20;;;;;;5024687;28;20120;-65
2022/07/03 01:05:53;;;;;;;0.40;0.40;;;19.40;64.40;;;;;;5050983;28;20021;-64
2022/07/03 01:08:30;;;;;;;0.40;0.40;;;19.30;64.30;;;;;;5052154;28;20112;-64
2022/07/03 01:11:21;;;;;;;0.30;0.30;;;19.30;64.40;;;;;;5051545;28;20487;-65
2022/07/03 01:14:08;;;;;;;0.40;0.40;;;19.20;64.50;;;;;;5052061;28;20047;-64
2022/07/03 01:16:40;;;;;;;0.50;0.50;;;19.10;64.70;;;;;;5040472;28;20109;-68
2022/07/03 01:19:42;;;;;;;0.28;0.28;;;19.10;64.80;;;;;;5045137;28;20170;-68
2022/07/03 01:22:27;;;;;;;0.73;0.50;;;19.10;64.80;;;;;;5025065;28;20048;-68
2022/07/03 01:25:03;;;;;;;0.30;0.30;;;19.00;64.80;;;;;;5050061;28;20083;-68
2022/07/03 01:27:43;;;;;;;1.35;0.38;;;19.00;64.80;;;;;;5052021;28;20044;-68
2022/07/03 01:30:11;;;;;;;0.38;0.30;;;19.00;64.90;;;;;;5038341;28;20017;-68
2022/07/03 01:32:54;;;;;;;0.30;0.30;;;18.90;64.90;;;;;;5051951;28;20064;-68
2022/07/03 01:35:37;;;;;;;0.30;0.30;;;18.90;65.00;;;;;;5038030;28;20033;-68
2022/07/03 01:38:06;;;;;;;1.30;0.40;;;18.80;65.00;;;;;;5033294;28;20032;-68
2022/07/03 01:40:33;;;;;;;0.50;0.50;;;18.80;65.30;;;;;;5052012;28;20028;-68
2022/07/03 01:43:01;;;;;;;0.40;0.40;;;18.80;65.40;;;;;;5051753;28;20104;-68
2022/07/03 01:45:28;;;;;;;0.70;0.70;;;18.70;65.40;;;;;;5033508;28;20032;-69
2022/07/03 01:47:56;;;;;;;2.42;1.00;;;18.70;65.40;;;;;;5051976;28;20110;-69
2022/07/03 01:50:24;;;;;;;1.40;0.57;;;18.70;65.30;;;;;;5050985;28;20049;-65
2022/07/03 01:52:50;;;;;;;4.55;0.98;;;18.80;65.30;;;;;;5016482;28;20029;-65
2022/07/03 01:55:18;;;;;;;1.15;0.93;;;18.80;65.00;;;;;;5037112;28;20028;-65
2022/07/03 01:57:46;;;;;;;0.95;0.65;;;18.90;65.00;;;;;;5051101;28;20495;-65
2022/07/03 02:00:15;;;;;;;1.30;0.73;;;18.90;65.00;;;;;;5050673;28;20083;-65
2022/07/03 02:03:03;;;;;;;0.70;0.70;;;18.90;65.00;;;;;;5039384;28;20036;-64
2022/07/03 02:05:45;;;;;;;1.27;1.17;;;19.00;65.10;;;;;;5050035;28;20104;-65
2022/07/03 02:08:26;;;;;;;0.90;0.88;;;19.00;65.30;;;;;;5050833;28;20140;-65
2022/07/03 02:11:13;;;;;;;1.13;1.00;;;19.00;65.30;;;;;;5051049;28;20706;-64
2022/07/03 02:14:15;;;;;;;1.20;1.08;;;19.00;65.40;;;;;;5053568;28;20025;-65
2022/07/03 02:16:41;;;;;;;;;;;19.00;65.70;;;;;;5050240;28;20043;-65
2022/07/03 02:19:10;;;;;;;0.98;0.98;;;18.90;65.90;;;;;;5031890;28;20363;-65
2022/07/03 02:21:43;;;;;;;1.30;1.20;;;18.90;65.90;;;;;;5049704;28;20049;-65
2022/07/03 02:24:25;;;;;;;1.33;1.23;;;18.90;66.10;;;;;;5038047;28;20040;-65
2022/07/03 02:27:19;;;;;;;1.17;1.02;;;18.90;66.20;;;;;;5024830;28;20364;-65
2022/07/03 02:29:58;;;;;;;0.95;0.93;;;18.80;66.30;;;;;;5032024;28;20017;-66
2022/07/03 02:32:25;;;;;;;1.75;0.98;;;18.80;66.40;;;;;;5021611;28;20033;-65
2022/07/03 02:35:10;;;;;;;1.27;1.17;;;18.80;66.50;;;;;;5028035;28;20492;-68
2022/07/03 02:37:52;;;;;;;1.40;1.30;;;18.80;66.70;;;;;;5027284;28;20132;-68
2022/07/03 02:40:32;;;;;;;1.17;1.08;;;18.80;66.80;;;;;;5028536;28;20396;-69
2022/07/03 02:43:01;;;;;;;1.27;1.00;;;18.80;67.00;;;;;;5010146;28;20018;-68
2022/07/03 02:45:38;;;;;;;1.60;1.50;;;18.70;67.20;;;;;;5010487;28;20076;-69
2022/07/03 02:48:24;;;;;;;1.63;1.52;;;18.70;67.30;;;;;;5028937;28;20025;-68
2022/07/03 02:50:56;;;;;;;2.35;1.10;;;18.70;67.50;;;;;;5027892;28;20033;-65
2022/07/03 02:53:25;;;;;;;;;;;18.70;67.70;;;;;;5029962;28;20087;-65
2022/07/03 02:56:05;;;;;;;1.80;1.63;;;18.70;67.70;;;;;;5028640;28;19909;-69
2022/07/03 02:58:31;;;;;;;1.55;1.05;;;18.70;67.70;;;;;;5029355;28;20108;-69
2022/07/03 03:01:15;;;;;;;2.80;1.20;;;18.60;67.70;;;;;;5029244;28;20519;-69
2022/07/03 03:04:09;;;;;;;1.20;1.10;;;18.60;67.70;;;;;;5011610;28;20033;-68
2022/07/03 03:06:37;;;;;;;2.20;1.60;;;18.60;67.90;;;;;;5020593;28;20121;-69
2022/07/03 03:09:04;;;;;;;1.45;1.35;;;18.50;67.90;;;;;;5028708;28;20246;-69
2022/07/03 03:11:43;;;;;;;1.30;1.20;;;18.50;68.00;;;;;;5028346;28;20021;-68
2022/07/03 03:14:13;;;;;;;5.07;1.23;;;18.50;68.10;;;;;;5025659;28;20075;-69
2022/07/03 03:16:51;;;;;;;1.63;1.52;;;18.50;68.30;;;;;;5028048;28;20529;-69
2022/07/03 03:19:21;;;;;;;1.38;1.27;;;18.50;68.30;;;;;;5026820;28;20030;-69
2022/07/03 03:21:58;;;;;;;1.60;1.50;;;18.50;68.50;;;;;;5035642;28;20606;-69
2022/07/03 03:24:25;;;;;;;1.77;1.23;;;18.40;68.60;;;;;;5047847;28;20068;-69
2022/07/03 03:26:51;;;;;;;2.33;1.67;;;18.40;68.60;;;;;;5047235;28;20112;-69
2022/07/03 03:29:17;;;;;;;1.13;1.02;;;18.50;68.70;;;;;;5030830;28;20100;-69
2022/07/03 03:31:42;;;;;;;1.77;1.67;;;18.50;68.70;;;;;;5029684;28;20025;-69
2022/07/03 03:34:09;;;;;;;1.45;1.35;;;18.50;68.80;;;;;;5030301;28;20101;-69
2022/07/03 03:36:35;;;;;;;3.78;1.60;;;18.50;68.70;;;;;;5046515;28;20024;-69
2022/07/03 03:39:01;;;;;;;1.15;1.05;;;18.50;68.70;;;;;;5030783;28;20361;-69
2022/07/03 03:41:27;;;;;;;0.95;0.95;;;18.50;68.60;;;;;;5029868;28;20029;-65
2022/07/03 03:43:52;;;;;;;1.08;0.98;;;18.50;68.60;;;;;;5048337;28;20032;-66
2022/07/03 03:46:18;;;;;;;3.17;1.95;;;18.50;68.70;;;;;;5029207;28;20029;-65
2022/07/03 03:48:44;;;;;;;1.02;1.00;;;18.50;68.80;;;;;;5048092;28;20403;-66
2022/07/03 03:51:10;;;;;;;1.50;1.38;;;18.50;68.80;;;;;;5026293;28;20029;-66
2022/07/03 03:53:36;;;;;;;1.27;1.17;;;18.50;68.80;;;;;;5028452;28;20029;-66
2022/07/03 03:56:10;;;;;;;1.33;1.23;;;18.60;68.90;;;;;;5047523;28;20533;-65
2022/07/03 03:58:39;;;;;;;1.17;1.08;;;18.60;68.90;;;;;;5030123;28;20033;-66
2022/07/03 04:01:06;;;;;;;3.67;1.50;;;18.60;68.90;;;;;;5047975;28;20030;-65
2022/07/03 04:03:33;;;;;;;2.17;1.88;;;18.70;69.00;;;;;;5028633;28;20024;-66
2022/07/03 04:05:59;;;;;;;1.40;1.30;;;18.70;68.90;;;;;;5027799;28;20430;-65
2022/07/03 04:08:25;;;;;;;1.40;1.30;;;18.80;68.90;;;;;;5047538;28;20029;-65
2022/07/03 04:10:52;;;;;;;1.13;1.10;;;18.80;68.80;;;;;;5029537;28;20432;-65
2022/07/03 04:13:20;;;;;;;0.93;0.93;;;18.80;68.70;;;;;;5018783;28;20492;-65
2022/07/03 04:15:54;;;;;;;1.80;1.35;;;18.90;68.70;;;;;;5041901;28;20021;-65
2022/07/03 04:18:20;;;;;;;1.27;1.17;;;19.00;68.70;;;;;;5046378;28;20079;-66
2022/07/03 04:20:46;;;;;;;1.27;1.17;;;19.00;68.60;;;;;;5046838;28;20107;-65
2022/07/03 04:23:12;;;;;;;1.88;1.23;;;19.10;68.50;;;;;;5044690;28;20515;-65
2022/07/03 04:25:38;;;;;;;1.25;1.15;;;19.20;68.60;;;;;;5045161;28;20506;-65
2022/07/03 04:28:04;;;;;;;1.40;1.08;;;19.20;68.50;;;;;;5046851;28;20028;-66
2022/07/03 04:30:29;;;;;;;1.35;1.20;;;19.30;68.50;;;;;;5024559;28;20025;-65
2022/07/03 04:32:55;;;;;;;1.10;0.93;;;19.30;68.50;;;;;;5029195;28;20024;-65
2022/07/03 04:35:21;;;;;;;1.38;0.93;;;19.20;68.60;;;;;;5046465;28;20094;-66
2022/07/03 04:37:47;;;;;;;1.20;1.10;;;19.20;68.70;;;;;;5028457;28;20025;-65
2022/07/03 04:40:13;;;;;;;2.15;1.77;;;19.10;68.90;;;;;;5047536;28;20040;-65
2022/07/03 04:42:38;;;;;;;1.00;0.90;;;19.10;69.70;;;;;;5025014;28;20063;-65
2022/07/03 04:45:04;;;;;;;1.77;1.25;;;19.00;69.20;;;;;;5045840;28;20128;-65
2022/07/03 04:47:30;;;;;;;1.42;1.08;;;19.00;69.30;;;;;;5046618;28;20102;-65
2022/07/03 04:49:56;;;;;;;2.00;0.90;;;18.90;69.30;;;;;;5029431;28;20028;-65
2022/07/03 04:52:22;;;;;;;1.48;1.25;;;18.90;69.40;;;;;;5028502;28;20111;-69
2022/07/03 04:54:47;;;;;;;1.08;1.02;;;18.90;69.50;;;;;;5046568;28;20094;-65
2022/07/03 04:57:13;;;;;;;1.67;1.23;;;18.90;69.50;;;;;;5028617;28;20472;-65
2022/07/03 04:59:39;;;;;;;1.30;0.95;;;18.90;69.60;;;;;;5047632;28;20025;-65
2022/07/03 05:02:04;;;;;;;0.98;0.85;;;18.90;69.80;;;;;;5046468;28;20069;-65
2022/07/03 05:04:30;;;;;;;0.60;0.60;;;18.90;69.80;;;;;;5028572;28;20029;-64
2022/07/03 05:06:56;;;;;;;0.88;0.88;;;19.00;69.80;;;;;;5045661;28;20033;-65
2022/07/03 05:09:22;;;;;;;0.70;0.68;;;19.10;69.80;;;;;;5046826;28;20048;-65
2022/07/03 05:11:47;;;;;;;2.55;0.82;;;19.10;69.60;;;;;;5028709;28;20116;-65
2022/07/03 05:14:13;;;;;;;1.02;0.57;;;19.30;69.50;;;;;;5046713;28;20029;-64
2022/07/03 05:16:39;;;;;;;0.60;0.60;;;19.40;69.30;;;;;;5044807;28;20029;-65
2022/07/03 05:19:05;;;;;;;1.42;0.50;;;19.50;68.80;;;;;;5046454;28;20032;-65
2022/07/03 05:21:31;;;;;;;0.40;0.40;;;19.60;68.30;;;;;;5045112;28;20102;-65
2022/07/03 05:23:57;;;;;;;0.75;0.75;;;19.80;67.90;;;;;;5047195;28;20091;-65
2022/07/03 05:26:23;;;;;;;0.50;0.50;;;19.90;67.40;;;;;;5046453;28;20025;-68
2022/07/03 05:28:49;;;;;;;1.70;0.77;;;20.10;67.10;;;;;;5028330;28;20021;-68
2022/07/03 05:31:14;;;;;;;0.40;0.40;;;20.20;66.70;;;;;;5046234;28;20021;-68
2022/07/03 05:33:40;;;;;;;0.50;0.50;;;20.30;66.50;;;;;;5028149;28;20486;-68
2022/07/03 05:36:06;;;;;;;0.50;0.50;;;20.40;66.10;;;;;;5045031;28;20043;-68
2022/07/03 05:41:17;;;;;;;1.20;0.60;;;20.60;65.40;;;;;;5046484;28;20083;-68
2022/07/03 05:43:43;;;;;;;0.98;0.40;;;20.70;65.10;;;;;;5046081;28;20025;-68
2022/07/03 05:46:09;;;;;;;0.30;0.30;;;20.70;64.00;;;;;;5045837;28;20028;-64
2022/07/03 05:48:34;;;;;;;0.50;0.30;;;20.70;63.70;;;;;;5043254;28;20013;-64
2022/07/03 05:51:00;;;;;;;0.32;0.32;;;20.80;63.90;;;;;;5048134;28;20119;-65
2022/07/03 05:53:26;;;;;;;1.45;0.93;;;20.80;63.90;;;;;;5048902;28;20029;-64
2022/07/03 05:55:52;;;;;;;0.65;0.45;;;20.70;63.80;;;;;;5030994;28;20029;-64
2022/07/03 05:58:18;;;;;;;0.20;0.20;;;20.70;63.60;;;;;;5032272;28;20036;-64
2022/07/03 06:00:45;;;;;;;0.47;0.45;;;20.60;63.80;;;;;;5050188;28;20033;-65
2022/07/03 06:03:11;;;;;;;0.32;0.32;;;20.60;63.50;;;;;;5051962;28;20036;-65
2022/07/03 06:05:38;;;;;;;0.75;0.73;;;20.50;63.80;;;;;;5032442;28;20071;-67
2022/07/03 06:08:04;;;;;;;0.40;0.40;;;20.50;63.60;;;;;;5032725;28;20120;-66
2022/07/03 06:10:30;;;;;;;0.95;0.63;;;20.60;63.60;;;;;;5051289;28;20024;-67
2022/07/03 06:12:56;;;;;;;0.50;0.50;;;20.70;63.00;;;;;;5050851;28;20033;-67
2022/07/03 06:15:22;;;;;;;1.55;0.68;;;20.70;62.90;;;;;;5044833;28;20414;-67
2022/07/03 06:17:47;;;;;;;0.65;0.65;;;20.90;62.90;;;;;;5051009;28;20104;-67
2022/07/03 06:20:14;;;;;;;0.82;0.35;;;21.00;62.70;;;;;;5050431;28;20435;-67
2022/07/03 06:22:41;;;;;;;1.00;0.73;;;21.10;62.40;;;;;;5040718;28;20495;-67
2022/07/03 06:25:07;;;;;;;0.40;0.40;;;21.20;62.60;;;;;;5050468;28;20085;-67
2022/07/03 06:27:33;;;;;;;0.73;0.45;;;21.30;61.90;;;;;;5050621;28;20151;-67
2022/07/03 06:30:03;;;;;;;1.17;0.30;;;21.40;61.70;;;;;;5020216;28;20036;-67
2022/07/03 06:32:28;;;;;;;0.68;0.60;;;21.40;61.60;;;;;;5017534;28;20052;-68
2022/07/03 06:34:54;;;;;;;0.30;0.30;;;21.50;61.60;;;;;;5050376;28;20033;-67
2022/07/03 06:37:21;;;;;;;0.40;0.40;;;21.50;61.50;;;;;;5029140;28;20051;-67
2022/07/03 06:39:46;;;;;;;1.00;0.40;;;21.40;61.60;;;;;;5050543;28;20035;-68
2022/07/03 06:42:12;;;;;;;0.28;0.28;;;21.50;61.50;;;;;;5050633;28;20025;-67
2022/07/03 06:44:38;;;;;;;0.20;0.20;;;21.50;61.30;;;;;;5018907;28;20051;-68
2022/07/03 06:47:04;;;;;;;0.40;0.40;;;21.50;61.20;;;;;;5050263;28;20395;-67
2022/07/03 06:49:33;;;;;;;0.50;0.50;;;21.60;61.10;;;;;;5032922;28;20542;-67
2022/07/03 06:51:59;;;;;;;1.30;0.70;;;21.70;61.10;;;;;;5031768;28;20025;-68
2022/07/03 06:54:25;;;;;;;0.45;0.45;;;21.70;60.90;;;;;;5049895;28;20525;-67
2022/07/03 06:56:51;;;;;;;0.80;0.63;;;21.80;60.70;;;;;;5050152;28;20098;-67
2022/07/03 06:59:16;;;;;;;1.15;0.40;;;21.80;60.40;;;;;;5033125;28;20105;-68
2022/07/03 07:01:42;;;;;;;0.47;0.47;;;21.70;60.40;;;;;;5049009;28;20029;-68
2022/07/03 07:04:08;;;;;;;0.40;0.40;;;21.80;60.60;;;;;;5050024;28;20448;-67
2022/07/03 07:06:34;;;;;;;0.50;0.50;;;21.80;60.40;;;;;;5031677;28;20025;-68
2022/07/03 07:09:00;;;;;;;3.90;0.75;;;21.80;60.20;;;;;;5031306;28;20061;-68
2022/07/03 07:11:25;;;;;;;0.50;0.40;;;21.80;60.40;;;;;;5047154;28;20025;-67
2022/07/03 07:13:51;;;;;;;0.35;0.35;;;21.90;60.30;;;;;;5050131;28;20028;-67
2022/07/03 07:16:17;;;;;;;1.10;0.68;;;22.00;60.30;;;;;;5050422;28;20395;-67
2022/07/03 07:18:43;;;;;;;0.95;0.57;;;22.10;60.20;;;;;;5048755;28;20037;-67
2022/07/03 07:21:10;;;;;;;1.45;0.30;;;22.20;59.70;;;;;;5045900;28;20816;-67
2022/07/03 07:23:35;;;;;;;0.65;0.50;;;22.20;59.20;;;;;;5025095;28;20465;-67
2022/07/03 07:26:01;;;;;;;0.32;0.30;;;22.20;59.20;;;;;;5025113;28;20028;-67
2022/07/03 07:28:28;;;;;;;0.70;0.30;;;22.30;59.20;;;;;;5029335;28;20057;-67
2022/07/03 07:30:55;;;;;;;0.40;0.30;;;22.40;59.00;;;;;;5025406;28;20049;-67
2022/07/03 07:33:20;;;;;;;0.22;0.22;;;22.50;58.50;;;;;;5028140;28;20026;-68
2022/07/03 07:35:47;;;;;;;0.22;0.22;;;22.50;58.30;;;;;;5029501;28;20514;-67
2022/07/03 07:38:12;;;;;;;0.45;0.43;;;22.50;57.80;;;;;;5038028;28;20037;-68
2022/07/03 07:40:38;;;;;;;0.20;0.20;;;22.60;57.60;;;;;;5041108;28;20025;-67
2022/07/03 07:43:04;;;;;;;3.10;0.90;;;22.60;57.70;;;;;;5030640;28;20031;-70
2022/07/03 07:45:29;;;;;;;0.52;0.32;;;22.70;57.10;;;;;;5024862;28;20060;-70
2022/07/03 07:47:55;;;;;;;0.52;0.40;;;22.70;57.00;;;;;;5030998;28;20037;-70
2022/07/03 07:50:21;;;;;;;0.57;0.57;;;22.80;56.60;;;;;;5026961;28;20114;-70
2022/07/03 07:52:47;;;;;;;1.05;0.65;;;22.80;56.80;;;;;;5030295;28;20118;-70
2022/07/03 07:55:13;;;;;;;0.70;0.40;;;22.80;57.10;;;;;;5022394;28;20034;-71
2022/07/03 07:57:40;;;;;;;0.40;0.40;;;22.90;57.30;;;;;;5035787;28;20088;-70
2022/07/03 08:00:11;;;;;;;0.30;0.30;;;23.00;57.40;;;;;;5016604;28;20107;-70
2022/07/03 08:05:36;;;;;;;0.77;0.50;;;23.20;57.40;;;;;;5027415;28;20072;-70
2022/07/03 08:08:03;;;;;;;0.75;0.60;;;23.20;57.30;;;;;;5029389;28;20476;-70
2022/07/03 08:10:28;;;;;;;3.35;0.55;;;23.20;57.50;;;;;;5018800;28;20021;-70
2022/07/03 08:12:54;;;;;;;1.58;0.63;;;23.20;57.30;;;;;;5023621;28;20071;-70
2022/07/03 08:15:20;;;;;;;0.95;0.63;;;23.20;56.60;;;;;;5034061;28;20036;-71
2022/07/03 08:17:45;;;;;;;0.50;0.50;;;23.20;56.50;;;;;;5032332;28;20044;-69
2022/07/03 08:20:11;;;;;;;1.48;0.88;;;23.20;56.00;;;;;;5022923;28;20052;-69
2022/07/03 08:22:37;;;;;;;0.88;0.60;;;23.20;55.20;;;;;;5037778;28;20051;-69
2022/07/03 08:25:02;;;;;;;0.68;0.57;;;23.20;54.50;;;;;;5000364;28;20048;-69
2022/07/03 08:27:28;;;;;;;2.33;0.50;;;23.20;55.00;;;;;;5023754;28;20041;-66
2022/07/03 08:29:54;;;;;;;0.40;0.38;;;23.20;54.90;;;;;;5018903;28;20034;-70
2022/07/03 08:32:19;;;;;;;0.47;0.47;;;23.30;55.20;;;;;;5029734;28;20026;-69
2022/07/03 08:34:45;;;;;;;1.02;0.38;;;23.50;55.00;;;;;;5022832;28;20368;-69
2022/07/03 08:37:11;;;;;;;0.30;0.30;;;23.60;55.20;;;;;;5018950;28;20044;-69
2022/07/03 08:39:36;;;;;;;0.55;0.55;;;23.60;55.30;;;;;;5023845;28;20037;-69
2022/07/03 08:42:03;;;;;;;0.40;0.40;;;23.60;55.00;;;;;;5019055;28;20053;-69
2022/07/03 08:44:30;;;;;;;0.30;0.30;;;23.50;54.90;;;;;;5014436;28;20025;-66
2022/07/03 08:46:56;;;;;;;0.60;0.60;;;23.50;55.20;;;;;;5015632;28;20802;-69
2022/07/03 08:49:23;;;;;;;0.82;0.38;;;23.60;55.00;;;;;;5023670;28;20598;-69
2022/07/03 08:51:50;;;;;;;0.75;0.75;;;23.70;54.50;;;;;;5023629;28;20112;-70
2022/07/03 08:54:16;;;;;;;1.45;0.20;;;23.70;54.70;;;;;;5017505;28;20040;-69
2022/07/03 08:56:42;;;;;;;0.50;0.50;;;23.80;54.80;;;;;;5021568;28;20492;-69
2022/07/03 08:59:08;;;;;;;0.30;0.30;;;23.90;55.10;;;;;;5028100;28;20539;-65
2022/07/03 09:01:40;;;;;;;0.80;0.80;;;23.90;55.20;;;;;;5017040;28;20033;-65
2022/07/03 09:04:08;;;;;;;;;;;24.00;55.10;;;;;;5037906;28;20060;-65
2022/07/03 09:06:34;;;;;;;0.63;0.60;;;24.00;54.60;;;;;;5028175;28;19920;-65
2022/07/03 09:09:02;;;;;;;4.15;1.13;;;23.90;54.20;;;;;;5028511;28;20501;-65
2022/07/03 09:11:28;;;;;;;0.70;0.57;;;23.80;54.30;;;;;;5025927;28;20076;-65
2022/07/03 09:13:54;;;;;;;0.85;0.73;;;23.80;54.20;;;;;;5023993;28;20420;-66
2022/07/03 09:16:19;;;;;;;0.40;0.40;;;23.90;54.10;;;;;;5027519;28;20472;-66
2022/07/03 09:18:45;;;;;;;0.60;0.60;;;23.90;53.90;;;;;;5003091;28;20555;-66
2022/07/03 09:21:12;;;;;;;0.30;0.30;;;24.00;53.70;;;;;;5015278;28;20123;-66
2022/07/03 09:23:40;;;;;;;0.63;0.63;;;24.10;52.60;;;;;;5048281;28;20025;-66
2022/07/03 09:26:11;;;;;;;0.40;0.30;;;24.20;52.50;;;;;;5044152;28;20036;-66
2022/07/03 09:28:51;;;;;;;0.68;0.60;;;24.30;52.30;;;;;;5055112;28;20029;-66
2022/07/03 09:31:22;;;;;;;0.77;0.32;;;24.30;51.80;;;;;;5055635;28;20670;-66
2022/07/03 09:33:56;;;;;;;0.35;0.30;;;24.40;52.10;;;;;;5051564;28;20013;-66
2022/07/03 09:36:38;;;;;;;2.40;0.68;;;24.50;52.20;;;;;;5057534;28;20092;-66
2022/07/03 09:39:25;;;;;;;0.50;0.50;;;24.60;51.60;;;;;;5036870;28;20029;-65
2022/07/03 09:42:05;;;;;;;0.47;0.20;;;24.70;50.70;;;;;;5040731;28;20052;-64
2022/07/03 09:44:42;;;;;;;0.50;0.43;;;24.60;51.70;;;;;;5051382;28;20021;-64
2022/07/03 09:47:09;;;;;;;0.50;0.50;;;24.70;52.10;;;;;;5052689;28;20060;-64
2022/07/03 09:49:56;;;;;;;0.50;0.50;;;24.90;52.10;;;;;;5034537;28;20057;-63
2022/07/03 09:52:28;;;;;;;2.30;0.65;;;24.90;52.30;;;;;;5037947;28;20044;-64
2022/07/03 09:54:55;;;;;;;0.82;0.80;;;25.00;52.50;;;;;;5042988;28;20029;-64
2022/07/03 09:57:22;;;;;;;0.30;0.30;;;25.10;52.80;;;;;;5035668;28;20041;-65
2022/07/03 09:59:48;;;;;;;0.30;0.30;;;25.40;52.60;;;;;;5034000;28;20028;-64
2022/07/03 10:02:14;;;;;;;0.50;0.50;;;25.60;52.30;;;;;;5054540;28;20446;-64
2022/07/03 10:04:40;;;;;;;0.68;0.68;;;25.60;51.80;;;;;;5041365;28;20151;-64
2022/07/03 10:07:05;;;;;;;0.50;0.50;;;25.60;52.10;;;;;;5050667;28;20036;-65
2022/07/03 10:09:33;;;;;;;0.30;0.30;;;25.60;52.20;;;;;;5038974;28;20036;-64
2022/07/03 10:12:00;;;;;;;0.50;0.50;;;25.60;52.60;;;;;;5037549;28;20021;-64
2022/07/03 10:14:35;;;;;;;1.05;0.70;;;25.70;51.90;;;;;;5051051;28;20405;-66
2022/07/03 10:17:02;;;;;;;0.75;0.75;;;25.70;52.00;;;;;;5051083;28;20488;-71
2022/07/03 10:19:30;;;;;;;0.40;0.40;;;25.70;52.40;;;;;;5051313;28;20029;-70
2022/07/03 10:21:59;;;;;;;0.60;0.60;;;25.80;52.50;;;;;;5050134;28;20522;-71
2022/07/03 10:24:28;;;;;;;0.60;0.60;;;25.80;52.20;;;;;;5037618;28;20387;-69
2022/07/03 10:26:56;;;;;;;0.60;0.60;;;25.80;52.00;;;;;;5030821;28;20116;-67
2022/07/03 10:29:24;;;;;;;1.52;0.60;;;25.80;52.10;;;;;;5052935;28;20454;-68
2022/07/03 10:31:51;;;;;;;0.40;0.35;;;25.80;52.40;;;;;;5019843;28;20021;-68
2022/07/03 10:34:20;;;;;;;2.60;0.40;;;26.00;52.20;;;;;;5045633;28;20071;-68
2022/07/03 10:36:57;;;;;;;1.00;0.50;;;26.10;51.90;;;;;;5033157;28;20361;-69
2022/07/03 10:39:36;;;;;;;0.70;0.70;;;26.10;50.90;;;;;;5024265;28;20068;-68
2022/07/03 10:44:51;;;;;;;1.25;0.52;;;26.10;51.00;;;;;;5028472;28;20060;-70
2022/07/03 10:47:37;;;;;;;0.57;0.57;;;26.20;51.10;;;;;;5024313;28;20120;-69
2022/07/03 10:50:09;;;;;;;0.57;0.57;;;26.10;49.70;;;;;;4998573;28;20037;-70
2022/07/03 10:52:35;;;;;;;0.70;0.70;;;25.90;49.80;;;;;;5031343;28;20021;-70
2022/07/03 10:55:06;;;;;;;1.65;0.70;;;25.90;50.50;;;;;;5033003;28;20091;-70
2022/07/03 10:57:34;;;;;;;1.48;0.80;;;26.00;50.30;;;;;;5022088;28;20028;-71
2022/07/03 11:00:02;;;;;;;1.48;0.70;;;26.10;50.60;;;;;;5024614;28;20031;-69
2022/07/03 11:02:31;;;;;;;1.00;0.80;;;26.20;50.80;;;;;;5017197;28;20033;-68
2022/07/03 11:04:59;;;;;;;0.95;0.60;;;26.20;50.20;;;;;;5020186;28;20103;-70
2022/07/03 11:08:03;;;;;;;0.70;0.70;;;26.30;50.60;;;;;;5008125;28;20057;-68
2022/07/03 11:10:30;;;;;;;0.93;0.77;;;26.50;51.00;;;;;;5019024;28;20116;-68
2022/07/03 11:12:58;;;;;;;0.50;0.50;;;26.60;50.40;;;;;;5029893;28;20034;-68
2022/07/03 11:15:28;;;;;;;0.47;0.47;;;26.70;50.40;;;;;;5026629;28;20037;-70
2022/07/03 11:18:16;;;;;;;0.60;0.60;;;26.80;50.50;;;;;;5016327;28;20022;-71
2022/07/03 11:20:42;;;;;;;2.72;1.08;;;27.20;49.40;;;;;;5049751;28;20029;-70
2022/07/03 11:23:10;;;;;;;0.50;0.50;;;27.20;48.40;;;;;;5024765;28;20072;-70
2022/07/03 11:25:41;;;;;;;1.65;0.50;;;27.10;48.50;;;;;;5026940;28;20068;-68
2022/07/03 11:28:07;;;;;;;0.30;0.30;;;27.20;48.30;;;;;;5019544;28;20128;-67
2022/07/03 11:30:33;;;;;;;0.60;0.60;;;27.30;48.30;;;;;;5024561;28;20088;-67
2022/07/03 11:33:00;;;;;;;0.47;0.47;;;27.30;46.10;;;;;;5023455;28;20024;-67
2022/07/03 11:35:48;;;;;;;0.50;0.50;;;27.40;47.20;;;;;;5020312;28;20032;-67
2022/07/03 11:38:30;;;;;;;0.52;0.52;;;27.50;46.30;;;;;;5023216;28;20079;-67
2022/07/03 11:40:58;;;;;;;3.13;0.63;;;27.40;46.30;;;;;;5015295;28;20041;-67
2022/07/03 11:43:23;;;;;;;0.60;0.50;;;27.10;46.90;;;;;;5018712;28;20033;-71
2022/07/03 11:45:50;;;;;;;0.52;0.52;;;27.00;47.40;;;;;;5017156;28;20439;-70
2022/07/03 11:48:18;;;;;;;0.60;0.60;;;27.00;47.70;;;;;;5025542;28;20021;-70
2022/07/03 11:50:46;;;;;;;0.40;0.40;;;27.00;47.00;;;;;;5006272;28;20526;-71
2022/07/03 11:53:16;;;;;;;0.75;0.75;;;27.00;47.40;;;;;;5025939;28;20022;-67
2022/07/03 11:55:56;;;;;;;0.60;0.60;;;27.30;47.90;;;;;;5039575;28;20033;-67
2022/07/03 11:58:24;;;;;;;0.70;0.70;;;27.60;47.30;;;;;;5023337;28;20037;-70
2022/07/03 12:00:53;;;;;;;0.60;0.60;;;27.70;47.10;;;;;;5026591;28;20112;-71
2022/07/03 12:03:24;;;;;;;0.40;0.40;;;27.70;46.40;;;;;;5011074;28;20030;-70
2022/07/03 12:05:55;;;;;;;0.50;0.50;;;27.80;46.40;;;;;;5034789;28;20057;-70
2022/07/03 12:08:29;;;;;;;0.53;0.53;;;28.00;45.30;;;;;;5033545;28;20018;-70
2022/07/03 12:11:13;;;;;;;0.50;0.50;;;28.20;45.20;;;;;;5025851;28;20041;-70
2022/07/03 12:13:39;;;;;;;0.50;0.50;;;28.40;44.70;;;;;;5016078;28;20025;-67
2022/07/03 12:16:09;;;;;;;0.60;0.60;;;28.50;44.50;;;;;;5016332;28;20111;-67
2022/07/03 12:18:41;;;;;;;0.80;0.70;;;28.60;44.50;;;;;;5029627;28;20026;-66
2022/07/03 12:21:07;;;;;;;0.65;0.65;;;28.80;44.30;;;;;;5016692;28;20053;-70
2022/07/03 12:23:44;;;;;;;0.50;0.50;;;28.80;43.70;;;;;;5037699;28;20041;-67
2022/07/03 12:26:09;;;;;;;0.57;0.57;;;28.80;43.60;;;;;;5031528;28;20041;-67
2022/07/03 12:28:36;;;;;;;0.70;0.70;;;28.70;43.50;;;;;;5042609;28;20044;-67
2022/07/03 12:31:02;;;;;;;0.52;0.52;;;28.70;43.60;;;;;;5026648;28;20093;-67
2022/07/03 12:33:30;;;;;;;1.45;0.70;;;28.60;43.20;;;;;;5040659;28;20021;-67
2022/07/03 12:36:06;;;;;;;1.30;0.70;;;28.60;43.00;;;;;;5039935;28;20053;-67
2022/07/03 12:38:33;;;;;;;0.70;0.70;;;28.50;42.60;;;;;;5038876;28;20029;-68
2022/07/03 12:41:07;;;;;;;1.55;0.90;;;28.50;42.90;;;;;;5039612;28;20036;-66
2022/07/03 12:43:40;;;;;;;0.70;0.70;;;28.50;43.00;;;;;;5022654;28;20033;-67
2022/07/03 12:46:21;;;;;;;0.65;0.65;;;28.50;42.90;;;;;;5037824;28;20150;-68
2022/07/03 12:48:49;;;;;;;0.50;0.50;;;28.50;42.80;;;;;;5041099;28;20503;-70
2022/07/03 12:51:16;;;;;;;0.43;0.43;;;28.60;42.40;;;;;;5027591;28;20080;-67
2022/07/03 12:53:42;;;;;;;0.30;0.30;;;28.60;42.30;;;;;;5018985;28;20029;-67
2022/07/03 12:56:10;;;;;;;0.50;0.50;;;28.60;42.30;;;;;;5020673;28;20029;-67
2022/07/03 13:01:25;;;;;;;0.45;0.45;;;29.10;42.90;;;;;;5038226;28;20106;-66
2022/07/03 13:03:51;;;;;;;0.80;0.80;;;29.20;41.70;;;;;;5053436;28;20362;-66
2022/07/03 13:06:17;;;;;;;0.43;0.43;;;29.10;41.90;;;;;;5041872;28;20045;-67
2022/07/03 13:09:09;;;;;;;0.50;0.50;;;29.00;41.40;;;;;;5041270;28;20078;-66
2022/07/03 13:11:37;;;;;;;0.93;0.93;;;28.80;42.30;;;;;;5040460;28;20099;-66